Time;durP1;ratioP1;P1;durP2;ratioP2;P2;SDS_P1;SDS_P2;PMS_P1;PMS_P2;Temp;Humidity;BMP_temperature;BMP_pressure;BME280_temperature;BME280_humidity;BME280_pressure;Samples;Min_cycle;Max_cycle;Signal;HPM_P1;HPM_P2
2023/01/12 00:00:32;;;;;;;0.63;0.43;;;;;;;7.56;96.02;95870.44;4366704;32;20242;-60
2023/01/12 00:02:57;;;;;;;0.00;0.00;;;;;;;7.47;94.97;95872.03;4355905;32;20300;-61
2023/01/12 00:05:23;;;;;;;0.63;0.10;;;;;;;7.26;95.21;95873.00;4375863;32;20197;-60
2023/01/12 00:07:48;;;;;;;13.50;0.47;;;;;;;7.24;95.14;95873.25;4373148;32;20184;-61
2023/01/12 00:10:14;;;;;;;0.00;0.00;;;;;;;7.23;94.71;95862.97;4387525;32;20275;-60
2023/01/12 00:12:40;;;;;;;0.60;0.60;;;;;;;7.01;94.58;95867.63;4366770;32;20227;-60
2023/01/12 00:15:06;;;;;;;0.20;0.20;;;;;;;6.92;95.23;95861.22;4365928;32;20348;-60
2023/01/12 00:17:31;;;;;;;0.10;0.10;;;;;;;6.83;95.82;95869.63;4368246;32;20189;-60
2023/01/12 00:19:56;;;;;;;0.10;0.10;;;;;;;6.97;95.33;95864.69;4381888;32;20330;-61
2023/01/12 00:22:22;;;;;;;0.10;0.10;;;;;;;6.81;95.97;95868.31;4371646;32;20195;-61
2023/01/12 00:24:48;;;;;;;0.20;0.20;;;;;;;6.83;95.79;95869.63;4355262;32;20242;-61
2023/01/12 00:27:19;;;;;;;0.00;0.00;;;;;;;6.83;95.58;95867.00;4342256;32;20198;-60
2023/01/12 00:29:45;;;;;;;0.00;0.00;;;;;;;6.85;94.84;95870.19;4385009;32;20343;-61
2023/01/12 00:32:13;;;;;;;0.10;0.10;;;;;;;6.82;95.09;95865.41;4371558;32;20356;-60
2023/01/12 00:34:38;;;;;;;0.10;0.10;;;;;;;6.89;95.01;95867.81;4362108;32;20207;-60
2023/01/12 00:37:04;;;;;;;0.50;0.27;;;;;;;6.85;95.52;95864.91;4365825;32;20327;-60
2023/01/12 00:39:29;;;;;;;0.00;0.00;;;;;;;6.82;95.09;95861.97;4358493;32;20235;-61
2023/01/12 00:47:24;;;;;;;0.00;0.00;;;;;;;6.72;96.08;95861.91;4365039;32;20326;-60
2023/01/12 00:49:50;;;;;;;0.47;0.47;;;;;;;6.81;95.66;95858.56;4373318;32;20281;-61
2023/01/12 00:52:18;;;;;;;0.17;0.17;;;;;;;6.76;95.79;95858.53;4360682;32;20316;-61
2023/01/12 00:54:44;;;;;;;0.07;0.07;;;;;;;6.59;96.06;95855.25;4369669;32;20179;-61
2023/01/12 00:57:12;;;;;;;0.20;0.20;;;;;;;6.65;96.31;95854.22;4367342;32;20288;-61
2023/01/12 00:59:38;;;;;;;0.17;0.17;;;;;;;6.59;96.30;95857.91;4366159;32;20317;-60
2023/01/12 01:02:04;;;;;;;0.20;0.20;;;;;;;6.57;96.07;95854.72;4377082;32;20392;-61
2023/01/12 01:04:30;;;;;;;0.10;0.10;;;;;;;6.54;96.34;95863.13;4357522;32;20236;-61
2023/01/12 01:06:56;;;;;;;0.20;0.20;;;;;;;6.54;96.10;95865.75;4333912;32;20263;-64
2023/01/12 01:09:22;;;;;;;0.17;0.17;;;;;;;6.66;95.90;95870.84;4381445;32;20281;-61
2023/01/12 01:11:47;;;;;;;0.10;0.10;;;;;;;6.75;95.01;95870.09;4382591;32;20300;-61
2023/01/12 01:14:13;;;;;;;0.23;0.23;;;;;;;6.70;94.97;95880.63;4359242;32;20205;-61
2023/01/12 01:16:38;;;;;;;0.47;0.47;;;;;;;6.73;94.77;95882.75;4369936;32;20211;-61
2023/01/12 01:19:04;;;;;;;0.10;0.10;;;;;;;6.62;94.85;95878.47;4360309;32;20192;-61
2023/01/12 01:21:31;;;;;;;2.47;0.50;;;;;;;6.57;94.92;95878.44;4356284;32;20236;-60
2023/01/12 01:23:56;;;;;;;0.00;0.00;;;;;;;6.66;94.70;95870.84;4374193;32;20280;-61
2023/01/12 01:26:22;;;;;;;0.13;0.13;;;;;;;6.69;94.12;95863.22;4378046;32;20349;-61
2023/01/12 01:28:49;;;;;;;0.23;0.23;;;;;;;6.55;93.75;95862.87;4337249;32;20240;-60
2023/01/12 01:31:18;;;;;;;0.27;0.27;;;;;;;6.60;93.71;95874.50;4310267;32;20452;-61
2023/01/12 01:33:43;;;;;;;0.20;0.20;;;;;;;6.65;93.38;95870.03;4331180;32;20359;-61
2023/01/12 01:36:09;;;;;;;0.30;0.30;;;;;;;6.61;93.35;95876.09;4323389;32;20284;-61
2023/01/12 01:38:35;;;;;;;0.40;0.40;;;;;;;6.75;92.85;95869.31;4353488;32;20204;-61
2023/01/12 01:41:01;;;;;;;0.07;0.07;;;;;;;6.70;92.49;95877.97;4368059;32;20200;-61
2023/01/12 01:43:27;;;;;;;0.10;0.10;;;;;;;6.71;92.34;95884.06;4355907;32;20202;-61
2023/01/12 01:46:08;;;;;;;0.30;0.30;;;;;;;6.58;92.48;95882.66;4349900;32;20246;-61
2023/01/12 01:48:38;;;;;;;0.10;0.10;;;;;;;6.68;92.22;95872.16;4357121;32;20298;-61
2023/01/12 01:51:10;;;;;;;0.73;0.53;;;;;;;6.65;91.60;95880.59;4359858;32;20276;-61
2023/01/12 01:53:39;;;;;;;0.60;0.60;;;;;;;6.54;91.57;95881.56;4336294;32;20356;-61
2023/01/12 01:56:10;;;;;;;0.00;0.00;;;;;;;6.57;91.32;95870.53;4357194;32;20298;-60
2023/01/12 01:58:53;;;;;;;0.10;0.10;;;;;;;6.67;91.03;95873.22;4320668;32;20415;-61
2023/01/12 02:01:18;;;;;;;0.10;0.10;;;;;;;6.65;90.51;95869.28;4355968;32;20304;-61
2023/01/12 02:03:44;;;;;;;0.03;0.03;;;;;;;6.47;91.43;95862.53;4375057;32;20283;-61
2023/01/12 02:06:10;;;;;;;0.00;0.00;;;;;;;6.53;90.96;95872.09;4355501;32;20192;-60
2023/01/12 02:08:48;;;;;;;0.20;0.20;;;;;;;6.57;90.98;95872.38;4371276;32;20280;-60
2023/01/12 02:17:03;;;;;;;2.23;0.10;;;;;;;6.78;90.44;95856.41;4384496;32;20302;-61
2023/01/12 02:19:54;;;;;;;0.63;0.40;;;;;;;6.70;89.80;95854.25;4342170;32;20349;-61
2023/01/12 02:22:28;;;;;;;0.00;0.00;;;;;;;6.63;90.37;95847.63;4373122;32;20326;-61
2023/01/12 02:25:19;;;;;;;0.23;0.23;;;;;;;6.65;89.73;95840.28;4366772;32;20345;-60
2023/01/12 02:28:00;;;;;;;0.20;0.20;;;;;;;6.55;89.70;95833.88;4356041;32;20356;-60
2023/01/12 02:30:53;;;;;;;0.57;0.57;;;;;;;6.61;89.46;95841.81;4380186;32;20296;-61
2023/01/12 02:33:48;;;;;;;0.10;0.10;;;;;;;6.53;90.00;95843.88;4353478;32;20289;-61
2023/01/12 02:36:22;;;;;;;1.03;0.63;;;;;;;6.53;90.03;95843.09;4299609;32;20373;-60
2023/01/12 02:38:59;;;;;;;0.00;0.00;;;;;;;6.44;90.09;95845.41;4375861;32;20287;-61
2023/01/12 02:44:32;;;;;;;0.10;0.10;;;;;;;6.37;90.08;95842.22;4379937;32;20311;-60
2023/01/12 02:47:00;;;;;;;0.30;0.30;;;;;;;6.39;90.21;95844.59;4351524;32;20319;-61
2023/01/12 02:49:31;;;;;;;0.13;0.13;;;;;;;6.43;89.93;95835.94;4347531;32;20450;-62
2023/01/12 02:52:04;;;;;;;0.00;0.00;;;;;;;6.38;89.89;95840.37;4327692;32;20320;-61
2023/01/12 02:54:33;;;;;;;0.13;0.13;;;;;;;6.44;89.81;95839.34;4356236;32;20272;-61
2023/01/12 02:57:03;;;;;;;0.10;0.10;;;;;;;6.43;89.76;95832.50;4358402;32;20312;-60
2023/01/12 02:59:35;;;;;;;0.00;0.00;;;;;;;6.20;90.75;95839.72;4387317;32;20316;-60
2023/01/12 03:02:05;;;;;;;0.73;0.53;;;;;;;6.14;90.87;95834.66;4372831;32;20321;-60
2023/01/12 03:04:32;;;;;;;0.13;0.13;;;;;;;6.30;90.10;95832.91;4377939;32;20308;-61
2023/01/12 03:07:00;;;;;;;0.20;0.20;;;;;;;6.27;90.21;95825.53;4370859;32;20400;-61
2023/01/12 03:09:52;;;;;;;0.10;0.10;;;;;;;6.28;90.22;95827.91;4389945;32;20284;-61
2023/01/12 03:12:25;;;;;;;0.00;0.00;;;;;;;6.27;90.16;95828.16;4389829;32;20295;-60
2023/01/12 03:14:52;;;;;;;0.00;0.00;;;;;;;6.22;89.74;95828.12;4354783;32;20402;-60
2023/01/12 03:17:30;;;;;;;0.37;0.37;;;;;;;6.21;89.74;95827.34;4354563;32;20274;-61
2023/01/12 03:20:03;;;;;;;0.20;0.20;;;;;;;6.23;90.05;95827.88;4385321;32;20306;-61
2023/01/12 03:22:31;;;;;;;0.93;0.53;;;;;;;6.17;90.00;95824.41;4379821;32;20319;-61
2023/01/12 03:25:01;;;;;;;0.10;0.10;;;;;;;6.16;90.10;95824.66;4367268;32;20280;-61
2023/01/12 03:27:37;;;;;;;0.03;0.03;;;;;;;6.15;90.00;95830.97;4376816;32;20300;-61
2023/01/12 03:30:09;;;;;;;0.10;0.10;;;;;;;6.15;89.74;95828.34;4375250;32;20272;-61
2023/01/12 03:32:35;;;;;;;0.10;0.10;;;;;;;6.19;89.61;95824.97;4349149;32;20339;-61
2023/01/12 03:35:01;;;;;;;0.00;0.00;;;;;;;6.26;89.39;95830.00;4384686;32;20293;-61
2023/01/12 03:37:32;;;;;;;0.63;0.63;;;;;;;6.38;89.02;95821.91;4356974;32;20390;-61
2023/01/12 03:40:31;;;;;;;0.10;0.10;;;;;;;6.31;88.98;95830.03;4367980;32;20200;-61
2023/01/12 03:43:05;;;;;;;0.43;0.43;;;;;;;6.33;88.78;95829.78;4381343;32;20288;-61
2023/01/12 03:45:47;;;;;;;0.53;0.27;;;;;;;6.17;89.15;95821.78;4366534;32;20333;-60
2023/01/12 03:48:45;;;;;;;1.30;0.40;;;;;;;6.18;89.00;95823.38;4375199;32;20323;-60
2023/01/12 03:51:17;;;;;;;0.50;0.40;;;;;;;6.20;89.12;95826.56;4359254;32;20323;-61
2023/01/12 03:53:45;;;;;;;0.03;0.03;;;;;;;6.12;89.78;95824.37;4368679;32;20280;-61
2023/01/12 03:56:12;;;;;;;0.13;0.13;;;;;;;6.23;89.67;95825.25;4387508;32;20294;-61
2023/01/12 03:58:38;;;;;;;0.20;0.20;;;;;;;6.18;88.82;95831.28;4375611;32;20337;-61
2023/01/12 04:01:04;;;;;;;0.00;0.00;;;;;;;6.20;88.40;95818.66;4376583;32;20308;-61
2023/01/12 04:03:30;;;;;;;0.53;0.53;;;;;;;6.12;89.02;95816.47;4347001;32;20259;-61
2023/01/12 04:05:55;;;;;;;0.20;0.20;;;;;;;6.19;88.70;95822.34;4357495;32;20293;-64
2023/01/12 04:08:21;;;;;;;0.00;0.00;;;;;;;6.10;88.90;95815.94;4380262;32;20196;-61
2023/01/12 04:10:47;;;;;;;0.17;0.17;;;;;;;6.14;88.35;95818.84;4389041;32;20196;-61
2023/01/12 04:13:13;;;;;;;1.17;0.23;;;;;;;6.13;88.69;95807.53;4387702;32;20294;-62
2023/01/12 04:15:41;;;;;;;0.20;0.20;;;;;;;5.95;88.97;95799.22;4358261;32;20232;-61
2023/01/12 04:18:08;;;;;;;0.40;0.20;;;;;;;6.07;88.56;95800.63;4376626;32;20188;-61
2023/01/12 04:20:34;;;;;;;0.40;0.40;;;;;;;6.11;87.87;95812.25;4363884;32;20304;-61
2023/01/12 04:22:59;;;;;;;0.47;0.47;;;;;;;5.99;88.08;95811.66;4381730;32;20276;-61
2023/01/12 04:25:25;;;;;;;0.23;0.23;;;;;;;5.90;88.24;95805.25;4365550;32;20236;-60
2023/01/12 04:28:03;;;;;;;0.37;0.37;;;;;;;5.85;88.88;95807.78;4343275;32;20189;-61
2023/01/12 04:30:33;;;;;;;0.20;0.20;;;;;;;5.96;88.56;95808.72;4368576;32;20203;-61
2023/01/12 04:33:04;;;;;;;0.10;0.10;;;;;;;6.08;87.58;95802.22;4378917;32;20319;-61
2023/01/12 04:35:29;;;;;;;0.40;0.40;;;;;;;6.16;87.44;95799.13;4382589;32;20297;-61
2023/01/12 04:37:56;;;;;;;0.27;0.27;;;;;;;6.01;87.17;95801.66;4369885;32;20350;-64
2023/01/12 04:40:22;;;;;;;0.20;0.20;;;;;;;5.95;87.43;95789.50;4355964;32;20193;-61
2023/01/12 04:43:03;;;;;;;0.17;0.17;;;;;;;5.80;87.47;95802.50;4380332;32;20279;-61
2023/01/12 04:45:37;;;;;;;0.10;0.10;;;;;;;5.81;87.79;95796.19;4369277;32;20249;-61
2023/01/12 04:48:08;;;;;;;3.20;0.77;;;;;;;6.03;87.18;95790.84;4386573;32;20333;-61
2023/01/12 04:50:34;;;;;;;0.00;0.00;;;;;;;5.96;86.61;95788.44;4355262;32;20307;-61
2023/01/12 04:53:03;;;;;;;0.00;0.00;;;;;;;6.10;86.10;95791.44;4376297;32;20280;-61
2023/01/12 04:55:29;;;;;;;0.10;0.10;;;;;;;6.05;86.46;95789.53;4374698;32;20198;-62
2023/01/12 04:57:56;;;;;;;0.30;0.30;;;;;;;6.10;85.49;95794.84;4382639;32;20394;-61
2023/01/12 05:00:21;;;;;;;0.00;0.00;;;;;;;6.09;85.57;95792.47;4364717;32;20221;-61
2023/01/12 05:02:46;;;;;;;0.10;0.10;;;;;;;6.22;85.34;95788.63;4336707;32;20349;-61
2023/01/12 05:05:12;;;;;;;1.13;0.40;;;;;;;6.11;85.20;95791.19;4344146;32;20233;-61
2023/01/12 05:10:21;;;;;;;0.20;0.10;;;;;;;6.09;85.53;95785.37;4338024;32;20239;-61
2023/01/12 05:10:22;;;;;;;0.20;0.20;;;;;;;6.31;84.91;95801.06;4366410;32;20226;-61
2023/01/12 05:12:48;;;;;;;0.47;0.30;;;;;;;6.18;85.01;95796.25;4369621;32;20289;-62
2023/01/12 05:15:13;;;;;;;0.47;0.30;;;;;;;6.15;84.58;95797.53;4385077;32;20199;-62
2023/01/12 05:17:41;;;;;;;0.07;0.07;;;;;;;6.18;84.70;95789.13;4379576;32;20250;-61
2023/01/12 05:20:09;;;;;;;0.00;0.00;;;;;;;6.08;84.75;95794.31;4364982;32;20220;-61
2023/01/12 05:22:34;;;;;;;0.20;0.20;;;;;;;6.14;84.99;95795.94;4347094;32;20316;-61
2023/01/12 05:24:59;;;;;;;0.10;0.10;;;;;;;6.10;84.66;95797.50;4354192;32;20342;-61
2023/01/12 05:27:25;;;;;;;0.30;0.30;;;;;;;6.11;84.24;95783.28;4371981;32;20271;-61
2023/01/12 05:29:51;;;;;;;0.10;0.10;;;;;;;6.17;83.73;95784.13;4370748;32;20218;-61
2023/01/12 05:32:19;;;;;;;0.03;0.03;;;;;;;6.14;83.96;95776.72;4360885;32;20251;-61
2023/01/12 05:34:45;;;;;;;0.13;0.13;;;;;;;6.15;83.71;95776.47;4373104;32;20326;-60
2023/01/12 05:37:11;;;;;;;0.10;0.10;;;;;;;6.15;83.56;95771.19;4354741;32;20408;-61
2023/01/12 05:39:36;;;;;;;0.00;0.00;;;;;;;6.32;83.51;95772.88;4342138;32;20232;-61
2023/01/12 05:44:59;;;;;;;0.00;0.00;;;;;;;6.20;82.85;95779.13;4308850;32;20244;-62
2023/01/12 05:47:24;;;;;;;0.37;0.37;;;;;;;6.26;82.90;95792.31;4345699;32;20359;-62
2023/01/12 05:49:49;;;;;;;1.70;0.77;;;;;;;6.15;83.13;95786.22;4356714;32;20184;-62
2023/01/12 05:52:15;;;;;;;0.10;0.10;;;;;;;6.27;82.29;95783.38;4384705;32;20287;-62
2023/01/12 05:54:40;;;;;;;0.20;0.20;;;;;;;6.30;82.05;95788.13;4366824;32;20193;-62
2023/01/12 05:57:05;;;;;;;0.20;0.20;;;;;;;6.24;82.19;95789.13;4379634;32;20200;-62
2023/01/12 05:59:31;;;;;;;1.07;0.80;;;;;;;6.27;81.40;95783.38;4367858;32;20251;-62
2023/01/12 06:01:56;;;;;;;0.00;0.00;;;;;;;6.20;82.02;95783.63;4331248;32;20226;-62
2023/01/12 06:04:21;;;;;;;0.10;0.10;;;;;;;6.26;81.76;95776.50;4347789;32;20231;-60
2023/01/12 06:06:47;;;;;;;0.20;0.20;;;;;;;6.20;80.80;95773.88;4349484;32;20294;-60
2023/01/12 06:09:13;;;;;;;0.17;0.17;;;;;;;6.27;81.66;95767.56;4343857;32;20192;-61
2023/01/12 06:14:22;;;;;;;0.33;0.33;;;;;;;6.27;81.47;95764.94;4379830;32;20206;-61
2023/01/12 06:16:47;;;;;;;0.60;0.60;;;;;;;6.17;81.53;95763.84;4375678;32;20284;-60
2023/01/12 06:19:12;;;;;;;0.20;0.20;;;;;;;6.20;81.31;95762.53;4374582;32;20263;-61
2023/01/12 06:21:39;;;;;;;0.10;0.10;;;;;;;6.17;81.03;95771.75;4341502;32;20251;-61
2023/01/12 06:24:04;;;;;;;0.40;0.40;;;;;;;6.25;80.70;95774.94;4358651;32;20225;-60
2023/01/12 06:26:30;;;;;;;0.17;0.17;;;;;;;6.24;80.45;95776.75;4356908;32;20389;-61
2023/01/12 06:28:55;;;;;;;0.30;0.30;;;;;;;6.30;80.56;95769.69;4359804;32;20231;-65
2023/01/12 06:31:26;;;;;;;0.20;0.20;;;;;;;6.28;80.24;95771.78;4363315;32;20219;-60
2023/01/12 06:33:52;;;;;;;0.10;0.10;;;;;;;6.29;80.61;95776.00;4371767;32;20188;-60
2023/01/12 06:36:17;;;;;;;0.40;0.33;;;;;;;6.32;79.71;95775.50;4356360;32;20283;-61
2023/01/12 06:38:46;;;;;;;0.20;0.20;;;;;;;6.15;81.15;95783.56;4354830;32;20290;-60
2023/01/12 06:43:58;;;;;;;0.17;0.17;;;;;;;6.38;79.77;95779.75;4360840;32;20323;-61
2023/01/12 06:46:25;;;;;;;0.23;0.23;;;;;;;6.30;80.11;95770.50;4373152;32;20298;-61
2023/01/12 06:48:51;;;;;;;0.00;0.00;;;;;;;6.30;79.98;95772.31;4378231;32;20291;-60
2023/01/12 06:51:16;;;;;;;0.20;0.20;;;;;;;6.22;80.65;95778.09;4388608;32;20303;-61
2023/01/12 06:53:41;;;;;;;0.10;0.10;;;;;;;6.33;80.17;95771.81;4346524;32;20235;-60
2023/01/12 06:56:07;;;;;;;0.20;0.20;;;;;;;6.39;79.16;95778.72;4346627;32;20318;-61
2023/01/12 06:58:32;;;;;;;0.20;0.20;;;;;;;6.47;78.69;95783.47;4376722;32;20207;-61
2023/01/12 07:01:02;;;;;;;5.20;0.47;;;;;;;6.54;78.23;95786.69;4357335;32;20235;-62
2023/01/12 07:03:27;;;;;;;0.10;0.10;;;;;;;6.47;78.74;95780.84;4365183;32;20193;-61
2023/01/12 07:05:52;;;;;;;0.30;0.30;;;;;;;6.49;78.31;95797.19;4380800;32;20306;-61
2023/01/12 07:08:18;;;;;;;1.97;0.60;;;;;;;6.48;78.62;95785.06;4354044;32;20243;-47
2023/01/12 07:10:47;;;;;;;2.87;1.50;;;;;;;6.70;87.97;95787.56;4352884;32;20236;-45
2023/01/12 07:13:12;;;;;;;1.40;1.17;;;;;;;9.45;100.00;95771.25;4317145;32;20277;-46
2023/01/12 07:15:37;;;;;;;3.00;0.83;;;;;;;10.54;98.22;95773.56;4341984;32;20461;-48
2023/01/12 07:18:05;;;;;;;0.20;0.20;;;;;;;11.20;82.20;95772.78;4352199;32;20230;-46
2023/01/12 07:20:37;;;;;;;0.30;0.30;;;;;;;11.87;74.85;95768.91;4338864;32;20224;-47
2023/01/12 07:23:02;;;;;;;0.80;0.47;;;;;;;12.34;70.83;95777.72;4356081;32;20244;-46
2023/01/12 07:25:27;;;;;;;0.30;0.30;;;;;;;12.66;65.36;95779.56;4358930;32;20227;-45
2023/01/12 07:27:55;;;;;;;1.50;0.50;;;;;;;12.14;60.78;95780.72;4326219;32;20298;-47
2023/01/12 07:30:22;;;;;;;0.37;0.37;;;;;;;12.51;62.46;95767.28;4361517;32;20233;-52
2023/01/12 07:32:49;;;;;;;0.20;0.20;;;;;;;12.37;67.68;95766.50;4365558;32;20246;-47
2023/01/12 07:35:16;;;;;;;3.10;0.73;;;;;;;12.75;68.08;95761.78;4386660;32;20245;-49
2023/01/12 07:37:49;;;;;;;0.50;0.20;;;;;;;12.61;61.47;95763.66;4383573;32;20261;-47
2023/01/12 07:40:15;;;;;;;1.50;0.70;;;;;;;12.82;61.50;95751.56;4364685;32;20250;-49
2023/01/12 07:42:40;;;;;;;0.40;0.33;;;;;;;12.95;62.17;95756.06;4328323;32;20216;-50
2023/01/12 07:45:06;;;;;;;0.57;0.57;;;;;;;12.75;59.60;95756.47;4348073;32;20218;-46
2023/01/12 07:47:31;;;;;;;0.30;0.30;;;;;;;12.87;59.86;95759.44;4372515;32;20185;-49
2023/01/12 07:49:57;;;;;;;0.27;0.27;;;;;;;12.97;61.08;95755.78;4388380;32;20193;-50
2023/01/12 07:52:22;;;;;;;0.37;0.37;;;;;;;12.65;59.16;95756.69;4376050;32;20253;-48
2023/01/12 07:54:49;;;;;;;21.40;1.93;;;;;;;12.59;58.40;95758.63;4366780;32;20335;-54
2023/01/12 07:57:15;;;;;;;0.70;0.70;;;;;;;12.72;71.55;95752.53;4371982;32;20212;-50
2023/01/12 07:59:41;;;;;;;0.20;0.20;;;;;;;12.50;68.33;95754.28;4379161;32;20197;-58
2023/01/12 08:02:15;;;;;;;2.60;1.40;;;;;;;12.21;57.86;95758.00;4373965;32;20193;-58
2023/01/12 08:04:41;;;;;;;0.20;0.20;;;;;;;10.23;59.65;95768.53;4356450;32;20250;-57
2023/01/12 08:07:06;;;;;;;4.30;3.90;;;;;;;9.44;63.40;95759.06;4359891;32;20215;-56
2023/01/12 08:09:31;;;;;;;2.50;2.30;;;;;;;8.51;65.93;95745.78;4384320;32;20264;-60
2023/01/12 08:11:57;;;;;;;2.13;2.03;;;;;;;8.34;67.51;95753.19;4387581;32;20192;-58
2023/01/12 08:14:27;;;;;;;2.97;2.43;;;;;;;8.17;68.25;95748.19;4371417;32;20253;-58
2023/01/12 08:16:55;;;;;;;2.57;2.43;;;;;;;7.91;69.53;95750.84;4375448;32;20239;-57
2023/01/12 08:19:24;;;;;;;1.50;1.07;;;;;;;7.90;69.23;95743.97;4337067;32;20436;-60
2023/01/12 08:21:57;;;;;;;1.63;1.23;;;;;;;7.96;69.87;95747.41;4356894;32;20284;-59
2023/01/12 08:24:32;;;;;;;2.10;2.00;;;;;;;7.87;69.75;95739.25;4379839;32;20288;-58
2023/01/12 08:27:01;;;;;;;5.83;5.37;;;;;;;7.97;69.58;95738.44;4382923;32;20295;-58
2023/01/12 08:29:33;;;;;;;1.17;1.07;;;;;;;7.78;69.67;95732.91;4389164;32;20306;-61
2023/01/12 08:32:05;;;;;;;2.37;1.57;;;;;;;7.74;70.24;95733.69;4368785;32;20342;-59
2023/01/12 08:34:31;;;;;;;0.47;0.47;;;;;;;7.83;69.53;95738.19;4366005;32;20283;-57
2023/01/12 08:36:58;;;;;;;1.20;1.20;;;;;;;7.72;70.97;95730.53;4373878;32;20320;-60
2023/01/12 08:39:24;;;;;;;1.53;1.33;;;;;;;7.69;70.46;95728.44;4368010;32;20272;-55
2023/01/12 08:41:49;;;;;;;0.90;0.83;;;;;;;7.72;70.49;95735.81;4388154;32;20360;-58
2023/01/12 08:44:15;;;;;;;0.57;0.57;;;;;;;7.74;70.38;95728.41;4374474;32;20276;-58
2023/01/12 08:46:51;;;;;;;0.27;0.27;;;;;;;7.91;70.89;95726.28;4372556;32;20253;-59
2023/01/12 08:49:23;;;;;;;0.20;0.20;;;;;;;8.07;69.84;95729.72;4381436;32;20286;-59
2023/01/12 08:51:48;;;;;;;0.13;0.13;;;;;;;8.02;69.19;95738.44;4372864;32;20285;-59
2023/01/12 08:54:16;;;;;;;2.27;0.67;;;;;;;8.09;69.07;95735.53;4377785;32;20283;-58
2023/01/12 08:56:42;;;;;;;0.30;0.30;;;;;;;8.19;68.79;95725.72;4359471;32;20244;-59
2023/01/12 08:59:07;;;;;;;0.17;0.17;;;;;;;8.19;68.21;95743.41;4329802;32;20398;-58
2023/01/12 09:01:34;;;;;;;0.50;0.50;;;;;;;8.34;68.17;95734.69;4367013;32;20196;-58
2023/01/12 09:03:59;;;;;;;0.23;0.23;;;;;;;8.22;68.05;95727.81;4388645;32;20243;-58
2023/01/12 09:06:31;;;;;;;0.57;0.57;;;;;;;8.39;67.97;95729.41;4370485;32;20311;-59
2023/01/12 09:08:58;;;;;;;0.40;0.40;;;;;;;8.37;68.40;95726.22;4368818;32;20196;-59
2023/01/12 09:11:26;;;;;;;0.50;0.50;;;;;;;8.66;68.98;95727.19;4350285;32;20285;-58
2023/01/12 09:13:51;;;;;;;0.33;0.33;;;;;;;8.64;67.31;95725.87;4366445;32;20292;-58
2023/01/12 09:16:18;;;;;;;0.20;0.20;;;;;;;8.63;66.36;95725.09;4339346;32;20386;-58
2023/01/12 09:18:44;;;;;;;7.43;1.10;;;;;;;8.65;67.90;95730.91;4344098;32;20201;-58
2023/01/12 09:21:10;;;;;;;1.40;0.63;;;;;;;8.77;67.80;95736.66;4356118;32;20357;-60
2023/01/12 09:23:36;;;;;;;0.83;0.70;;;;;;;8.90;65.67;95736.09;4325858;32;20350;-58
2023/01/12 09:26:07;;;;;;;0.60;0.60;;;;;;;8.80;65.81;95753.84;4368145;32;20297;-59
2023/01/12 09:28:33;;;;;;;0.70;0.70;;;;;;;8.93;66.24;95738.19;4353777;32;20203;-58
2023/01/12 09:31:01;;;;;;;0.93;0.70;;;;;;;8.78;65.97;95737.44;4371579;32;20356;-54
2023/01/12 09:33:26;;;;;;;2.43;0.77;;;;;;;8.90;65.23;95736.09;4364570;32;20280;-56
2023/01/12 09:35:51;;;;;;;0.67;0.67;;;;;;;8.96;65.34;95734.19;4364339;32;20325;-58
2023/01/12 09:38:17;;;;;;;0.57;0.53;;;;;;;9.04;65.37;95746.06;4350689;32;20184;-58
2023/01/12 09:40:43;;;;;;;0.77;0.60;;;;;;;8.95;64.76;95741.34;4365137;32;20197;-57
2023/01/12 09:48:42;;;;;;;0.30;0.30;;;;;;;9.11;65.19;95736.78;4362316;32;20399;-56
2023/01/12 09:51:33;;;;;;;0.83;0.57;;;;;;;9.22;64.89;95738.28;4369387;32;20281;-56
2023/01/12 09:53:58;;;;;;;0.27;0.27;;;;;;;9.39;63.60;95735.25;4345306;32;20213;-55
2023/01/12 09:56:51;;;;;;;0.20;0.20;;;;;;;9.42;63.28;95741.88;4345643;32;20307;-58
2023/01/12 09:59:39;;;;;;;1.80;0.40;;;;;;;9.60;62.89;95739.34;4362260;32;25590;-58
2023/01/12 10:02:10;;;;;;;0.90;0.87;;;;;;;9.37;62.34;95728.66;4351451;32;20253;-57
2023/01/12 10:04:36;;;;;;;0.53;0.30;;;;;;;9.55;62.38;95728.81;4365533;32;20185;-58
2023/01/12 10:07:02;;;;;;;2.70;0.83;;;;;;;9.29;62.62;95730.06;4354238;32;20237;-56
2023/01/12 10:09:28;;;;;;;1.90;0.53;;;;;;;9.32;62.77;95726.06;4317261;32;20224;-58
2023/01/12 10:12:04;;;;;;;0.00;0.00;;;;;;;9.48;62.97;95728.34;4362487;32;20201;-58
2023/01/12 10:14:33;;;;;;;0.30;0.30;;;;;;;9.71;62.53;95718.09;4390393;32;20238;-60
2023/01/12 10:17:24;;;;;;;1.80;0.37;;;;;;;9.94;62.11;95712.06;4391083;32;20196;-57
2023/01/12 10:20:27;;;;;;;0.30;0.30;;;;;;;9.75;62.23;95713.84;4370672;32;20229;-58
2023/01/12 10:23:00;;;;;;;1.10;0.40;;;;;;;9.75;61.70;95708.53;4363540;32;20192;-58
2023/01/12 10:25:32;;;;;;;1.30;0.70;;;;;;;9.81;62.24;95702.09;4367194;32;20238;-58
2023/01/12 10:27:59;;;;;;;0.33;0.33;;;;;;;10.06;61.17;95709.03;4375353;32;20240;-60
2023/01/12 10:30:33;;;;;;;1.20;0.57;;;;;;;10.05;61.80;95702.16;4358775;32;20215;-59
2023/01/12 10:33:16;;;;;;;1.80;0.43;;;;;;;9.75;62.25;95708.53;4354794;32;20223;-58
2023/01/12 10:36:06;;;;;;;0.10;0.10;;;;;;;9.82;61.37;95701.81;4387873;32;20251;-57
2023/01/12 10:38:55;;;;;;;0.10;0.10;;;;;;;9.87;60.13;95698.34;4363263;32;20255;-57
2023/01/12 10:41:26;;;;;;;0.57;0.57;;;;;;;9.77;60.46;95690.50;4385807;32;20223;-57
2023/01/12 10:43:57;;;;;;;0.20;0.20;;;;;;;9.91;58.37;95675.53;4366494;32;20197;-55
2023/01/12 10:46:25;;;;;;;0.00;0.00;;;;;;;9.62;59.38;95681.59;4339159;32;20224;-57
2023/01/12 10:48:52;;;;;;;0.30;0.30;;;;;;;9.59;60.70;95686.66;4341770;32;20262;-56
2023/01/12 10:51:50;;;;;;;0.10;0.10;;;;;;;9.79;60.19;95685.69;4342829;32;20279;-57
2023/01/12 10:54:19;;;;;;;0.33;0.30;;;;;;;9.97;58.28;95669.13;4358422;32;20187;-56
2023/01/12 10:57:03;;;;;;;0.33;0.33;;;;;;;9.82;59.55;95658.66;4381683;32;20192;-55
2023/01/12 10:59:34;;;;;;;0.00;0.00;;;;;;;9.83;58.08;95652.28;4388682;32;20207;-55
2023/01/12 11:02:05;;;;;;;0.00;0.00;;;;;;;9.95;58.28;95660.66;4387279;32;20235;-56
2023/01/12 11:04:36;;;;;;;0.83;0.20;;;;;;;9.74;58.51;95653.97;4373288;32;20224;-55
2023/01/12 11:07:11;;;;;;;0.40;0.30;;;;;;;9.88;58.39;95647.72;4380872;32;20296;-55
2023/01/12 11:09:37;;;;;;;0.20;0.20;;;;;;;9.92;57.74;95642.66;4392335;32;20191;-54
2023/01/12 11:12:16;;;;;;;0.13;0.13;;;;;;;10.02;58.24;95634.59;4380030;32;20200;-56
2023/01/12 11:14:42;;;;;;;0.00;0.00;;;;;;;9.89;58.29;95646.66;4386656;32;20192;-57
2023/01/12 11:17:19;;;;;;;2.03;0.30;;;;;;;10.03;56.59;95638.81;4358095;32;20364;-56
2023/01/12 11:19:47;;;;;;;0.23;0.23;;;;;;;10.01;56.80;95638.31;4356558;32;20218;-54
2023/01/12 11:22:26;;;;;;;1.03;0.33;;;;;;;10.09;56.74;95635.06;4332395;32;20307;-56
2023/01/12 11:25:06;;;;;;;0.67;0.40;;;;;;;10.15;56.90;95643.75;4333083;32;20232;-55
2023/01/12 11:27:46;;;;;;;0.10;0.10;;;;;;;10.05;57.35;95634.03;4341250;32;20227;-55
2023/01/12 11:30:24;;;;;;;0.27;0.27;;;;;;;10.05;57.04;95635.88;4347188;32;20187;-57
2023/01/12 11:32:57;;;;;;;0.20;0.20;;;;;;;10.24;57.06;95642.06;4376509;32;20188;-56
2023/01/12 11:35:43;;;;;;;0.30;0.30;;;;;;;10.41;57.03;95634.44;4390300;32;20230;-57
2023/01/12 11:38:12;;;;;;;0.20;0.20;;;;;;;10.22;56.70;95638.91;4395563;32;20279;-56
2023/01/12 11:40:40;;;;;;;0.53;0.53;;;;;;;10.15;56.09;95633.94;4346482;32;20283;-56
2023/01/12 11:46:16;;;;;;;0.10;0.10;;;;;;;10.26;55.50;95624.81;4390307;32;20203;-53
2023/01/12 11:49:12;;;;;;;0.63;0.33;;;;;;;10.20;56.73;95625.13;4380312;32;20249;-57
2023/01/12 11:51:41;;;;;;;0.10;0.00;;;;;;;10.19;55.30;95618.25;4352768;32;20192;-61
2023/01/12 11:54:12;;;;;;;0.97;0.57;;;;;;;10.15;56.79;95622.53;4350569;32;20235;-61
2023/01/12 11:57:19;;;;;;;0.20;0.20;;;;;;;10.34;55.54;95620.75;4370140;32;20193;-61
2023/01/12 12:00:07;;;;;;;0.30;0.30;;;;;;;10.38;55.74;95627.06;4374230;32;20232;-60
2023/01/12 12:02:40;;;;;;;0.00;0.00;;;;;;;10.10;56.59;95623.38;4377249;32;20196;-61
2023/01/12 12:05:11;;;;;;;0.10;0.10;;;;;;;10.09;56.15;95607.75;4380321;32;20217;-61
2023/01/12 12:07:58;;;;;;;0.13;0.13;;;;;;;10.27;56.74;95602.53;4384975;32;20219;-60
2023/01/12 12:10:29;;;;;;;0.30;0.30;;;;;;;10.17;56.32;95615.88;4385021;32;20192;-60
2023/01/12 12:13:19;;;;;;;0.20;0.20;;;;;;;10.09;56.35;95619.16;4380607;32;20239;-60
2023/01/12 12:16:01;;;;;;;0.10;0.10;;;;;;;10.11;56.84;95605.59;4367197;32;20286;-59
2023/01/12 12:18:45;;;;;;;0.10;0.10;;;;;;;10.07;56.73;95602.72;4367616;32;20188;-60
2023/01/12 12:21:10;;;;;;;0.20;0.20;;;;;;;10.13;56.41;95591.00;4378520;32;20266;-61
2023/01/12 12:23:55;;;;;;;0.73;0.53;;;;;;;10.02;57.71;95591.38;4389342;32;20204;-60